Gresham, Nebraska
Current Conditions -  °F | °C
As of 1:15 PM on Thursday 23 Oct 2014 (Local Time) from KJYR Reporting Station
Clear Clear  
Wind Chill: 66°   Ceiling: Unl
Heat Index: 66°   Visibility: 10mi
Dew Point: 55°   Wind: 7mph
Humidity: 68%   Direction: 250°WSW
Pressure: 30.08"   Gusts: NA
Location:  41.03°N, 97.4°W
Report Text: KJYR 231815Z AUTO 25006KT 10SM CLR 19/13 A3008 RMK AO2
Loading
Personal Weather Stations






























Interactive Weather Map
Tropical Storm Tracking
New forecast layout! Learn more

10-Day Weather Forecast

Advertisements
Track Severe Weather on mobile